Time;durP1;ratioP1;P1;durP2;ratioP2;P2;SDS_P1;SDS_P2;PMS_P1;PMS_P2;Temp;Humidity;BMP_temperature;BMP_pressure;BME280_temperature;BME280_humidity;BME280_pressure;Samples;Min_cycle;Max_cycle;Signal;HPM_P1;HPM_P2
2023/11/20 00:00:00;;;;;;;10.90;3.13;;;12.40;99.90;;;;;;4998009;28;20291;-86
2023/11/20 00:02:25;;;;;;;12.20;3.10;;;12.40;99.90;;;;;;4996898;28;20198;-85
2023/11/20 00:04:52;;;;;;;14.27;3.23;;;12.40;99.90;;;;;;4997449;28;20183;-85
2023/11/20 00:07:18;;;;;;;11.87;2.70;;;12.40;99.90;;;;;;4997724;28;20212;-87
2023/11/20 00:09:44;;;;;;;9.53;2.87;;;12.40;99.90;;;;;;4999582;28;20639;-87
2023/11/20 00:12:10;;;;;;;17.07;3.37;;;12.40;99.90;;;;;;4998670;28;20196;-85
2023/11/20 00:14:37;;;;;;;11.73;3.10;;;12.50;99.90;;;;;;4998652;28;20243;-86
2023/11/20 00:17:03;;;;;;;13.67;3.00;;;12.40;99.90;;;;;;4998718;28;20246;-86
2023/11/20 00:19:30;;;;;;;13.63;3.33;;;12.40;99.90;;;;;;4997796;28;20202;-84
2023/11/20 00:21:56;;;;;;;11.60;2.90;;;12.50;99.90;;;;;;4997989;28;20207;-85
2023/11/20 00:24:21;;;;;;;11.93;3.27;;;12.50;99.90;;;;;;4997441;28;20253;-85
2023/11/20 00:26:47;;;;;;;12.67;3.43;;;12.40;99.90;;;;;;4997763;28;20193;-86
2023/11/20 00:29:12;;;;;;;14.17;3.87;;;12.50;99.90;;;;;;4997551;28;20218;-86
2023/11/20 00:31:38;;;;;;;13.03;3.60;;;12.30;99.90;;;;;;4997022;28;20230;-83
2023/11/20 00:34:04;;;;;;;11.50;2.83;;;12.40;99.90;;;;;;5014781;28;20182;-85
2023/11/20 00:36:30;;;;;;;12.20;2.80;;;12.40;99.90;;;;;;4997035;28;20197;-86
2023/11/20 00:38:56;;;;;;;14.27;3.40;;;12.40;99.90;;;;;;5000640;28;20233;-84
2023/11/20 00:41:22;;;;;;;14.00;2.87;;;12.40;99.90;;;;;;5003625;28;20179;-86
2023/11/20 00:43:48;;;;;;;9.47;2.50;;;12.30;99.90;;;;;;4997969;28;20202;-84
2023/11/20 00:46:14;;;;;;;9.93;3.33;;;12.30;99.90;;;;;;5000073;28;20609;-84
2023/11/20 00:48:40;;;;;;;12.87;3.03;;;12.40;99.90;;;;;;4997595;28;20224;-84
2023/11/20 00:51:05;;;;;;;14.30;3.00;;;12.40;99.90;;;;;;5015398;28;20167;-86
2023/11/20 00:53:31;;;;;;;12.57;2.70;;;12.40;99.90;;;;;;4997444;28;20192;-85
2023/11/20 00:55:57;;;;;;;11.33;2.50;;;12.30;99.90;;;;;;4998234;28;20233;-84
2023/11/20 00:58:23;;;;;;;10.43;2.53;;;12.30;99.90;;;;;;4997823;28;20214;-86
2023/11/20 01:00:51;;;;;;;12.00;2.70;;;12.50;99.90;;;;;;4997660;28;20175;-87
2023/11/20 01:03:16;;;;;;;8.80;2.77;;;12.40;99.90;;;;;;4997312;28;20619;-85
2023/11/20 01:05:42;;;;;;;9.23;2.20;;;12.30;99.90;;;;;;4997067;28;20296;-85
2023/11/20 01:08:09;;;;;;;12.63;2.97;;;12.20;99.90;;;;;;4998200;28;20178;-85
2023/11/20 01:10:35;;;;;;;8.57;2.37;;;12.20;99.90;;;;;;5013613;28;20177;-86
2023/11/20 01:13:00;;;;;;;8.53;2.33;;;12.40;99.90;;;;;;4997475;28;20182;-86
2023/11/20 01:15:29;;;;;;;7.10;2.13;;;12.30;99.90;;;;;;4996592;28;20681;-84
2023/11/20 01:17:55;;;;;;;7.83;2.30;;;12.40;99.90;;;;;;4996233;28;20217;-86
2023/11/20 01:20:21;;;;;;;7.90;2.53;;;12.20;99.90;;;;;;4995638;28;20240;-86
2023/11/20 01:22:53;;;;;;;12.67;2.70;;;12.20;99.90;;;;;;4997329;28;20196;-86
2023/11/20 01:25:18;;;;;;;8.93;2.50;;;12.20;99.90;;;;;;4996797;28;20283;-85
2023/11/20 01:27:44;;;;;;;9.27;2.53;;;12.20;99.90;;;;;;4996708;28;20180;-86
2023/11/20 01:30:10;;;;;;;8.77;2.20;;;12.20;99.90;;;;;;4996719;28;20239;-87
2023/11/20 01:32:36;;;;;;;10.57;2.17;;;12.30;99.90;;;;;;4996137;28;20184;-85
2023/11/20 01:35:03;;;;;;;9.80;3.07;;;12.30;99.90;;;;;;4996764;28;20219;-85
2023/11/20 01:37:29;;;;;;;9.73;2.30;;;12.20;99.90;;;;;;4996385;28;20220;-86
2023/11/20 01:39:55;;;;;;;10.17;2.60;;;12.10;99.90;;;;;;5014166;28;20163;-89
2023/11/20 01:42:21;;;;;;;9.40;3.00;;;12.30;99.90;;;;;;5014097;28;20271;-85
2023/11/20 01:44:47;;;;;;;10.27;3.20;;;12.10;99.90;;;;;;4995894;28;20198;-86
2023/11/20 01:47:13;;;;;;;9.57;3.27;;;12.10;99.90;;;;;;5013620;28;20186;-87
2023/11/20 01:49:42;;;;;;;11.43;2.93;;;12.10;99.90;;;;;;4996142;28;20196;-85
2023/11/20 01:52:09;;;;;;;13.67;3.40;;;12.10;99.90;;;;;;4995607;28;20681;-86
2023/11/20 01:54:35;;;;;;;15.00;3.33;;;12.20;99.90;;;;;;4996658;28;20188;-84
2023/11/20 01:57:02;;;;;;;16.07;3.80;;;12.10;99.90;;;;;;5000989;28;20212;-85
2023/11/20 01:59:30;;;;;;;12.70;3.57;;;12.20;99.90;;;;;;5032241;28;20183;-86
2023/11/20 02:01:56;;;;;;;14.43;3.47;;;12.20;99.90;;;;;;4996302;28;20188;-85
2023/11/20 02:04:24;;;;;;;12.53;3.10;;;12.20;99.90;;;;;;4996642;28;20187;-85
2023/11/20 02:06:49;;;;;;;11.90;2.70;;;12.20;99.90;;;;;;5014727;28;20179;-86
2023/11/20 02:09:16;;;;;;;13.00;2.83;;;12.10;99.90;;;;;;4995880;28;20248;-85
2023/11/20 02:11:45;;;;;;;10.90;2.97;;;12.00;99.90;;;;;;4997219;28;20184;-86
2023/11/20 02:14:14;;;;;;;10.70;3.03;;;12.00;99.90;;;;;;4997032;28;20226;-85
2023/11/20 02:16:40;;;;;;;13.43;3.30;;;12.00;99.90;;;;;;5014245;28;20639;-85
2023/11/20 02:19:15;;;;;;;13.93;3.20;;;12.10;99.90;;;;;;5019482;28;20425;-85
2023/11/20 02:21:43;;;;;;;11.23;2.73;;;12.00;99.90;;;;;;5007696;28;20198;-84
2023/11/20 02:24:11;;;;;;;9.73;2.93;;;12.00;99.90;;;;;;5011245;28;20174;-85
2023/11/20 02:26:42;;;;;;;10.57;2.70;;;12.00;99.90;;;;;;5015372;28;20186;-84
2023/11/20 02:29:14;;;;;;;8.00;2.60;;;12.10;99.90;;;;;;5008425;28;20198;-85
2023/11/20 02:31:41;;;;;;;12.80;2.93;;;12.00;99.90;;;;;;4999700;28;20200;-84
2023/11/20 02:34:07;;;;;;;10.43;2.27;;;12.00;99.90;;;;;;5009108;28;20196;-85
2023/11/20 02:36:33;;;;;;;12.57;2.80;;;12.10;99.90;;;;;;4999405;28;20636;-85
2023/11/20 02:38:58;;;;;;;11.93;3.30;;;12.00;99.90;;;;;;4998170;28;20218;-85
2023/11/20 02:41:24;;;;;;;14.00;3.13;;;12.00;99.90;;;;;;4999444;28;20191;-85
2023/11/20 02:43:50;;;;;;;11.43;2.57;;;12.10;99.90;;;;;;5016860;28;20290;-85
2023/11/20 02:46:16;;;;;;;8.90;2.73;;;12.00;99.90;;;;;;4999804;28;20645;-86
2023/11/20 02:48:42;;;;;;;8.63;2.40;;;12.00;99.90;;;;;;4998998;28;20251;-85
2023/11/20 02:51:07;;;;;;;9.83;2.67;;;12.00;99.90;;;;;;4986387;28;20186;-85
2023/11/20 02:53:33;;;;;;;9.00;2.53;;;12.10;99.90;;;;;;4980089;28;20198;-84
2023/11/20 02:55:59;;;;;;;10.43;2.50;;;11.90;99.90;;;;;;4997193;28;20643;-86
2023/11/20 02:58:24;;;;;;;11.23;2.67;;;11.90;99.90;;;;;;4980321;28;20222;-86
2023/11/20 03:00:51;;;;;;;10.03;2.67;;;11.90;99.90;;;;;;4997116;28;20639;-86
2023/11/20 03:03:17;;;;;;;10.90;2.70;;;11.90;99.90;;;;;;4980310;28;20290;-84
2023/11/20 03:05:44;;;;;;;14.63;2.70;;;12.00;99.90;;;;;;4979235;28;20242;-85
2023/11/20 03:08:10;;;;;;;12.67;3.03;;;11.90;99.90;;;;;;4979402;28;20249;-85
2023/11/20 03:10:36;;;;;;;12.47;3.67;;;11.90;99.90;;;;;;4985934;28;20187;-84
2023/11/20 03:13:03;;;;;;;12.97;3.37;;;11.80;99.90;;;;;;4992158;28;20187;-84
2023/11/20 03:15:28;;;;;;;9.53;2.30;;;11.90;99.90;;;;;;4991621;28;20191;-83
2023/11/20 03:17:54;;;;;;;13.50;4.00;;;11.90;99.90;;;;;;4984583;28;20302;-85
2023/11/20 03:20:20;;;;;;;13.97;3.60;;;11.90;99.90;;;;;;4999764;28;20201;-84
2023/11/20 03:22:46;;;;;;;14.60;3.60;;;12.00;99.90;;;;;;4981865;28;20192;-83
2023/11/20 03:25:12;;;;;;;17.03;3.83;;;11.90;99.90;;;;;;4998344;28;20645;-84
2023/11/20 03:27:38;;;;;;;13.93;3.67;;;12.00;99.90;;;;;;4981509;28;20190;-84
2023/11/20 03:30:05;;;;;;;16.73;3.87;;;12.00;99.90;;;;;;4979028;28;20179;-85
2023/11/20 03:32:32;;;;;;;13.73;3.37;;;11.90;99.90;;;;;;4963338;28;20224;-86
2023/11/20 03:34:58;;;;;;;13.40;3.37;;;12.00;99.90;;;;;;4978810;28;20179;-85
2023/11/20 03:37:23;;;;;;;13.60;3.37;;;12.00;99.90;;;;;;4978089;28;20218;-87
2023/11/20 03:39:49;;;;;;;15.67;4.00;;;11.90;99.90;;;;;;4996529;28;20183;-84
2023/11/20 03:42:15;;;;;;;17.70;4.07;;;11.90;99.90;;;;;;4996147;28;20185;-84
2023/11/20 03:44:41;;;;;;;15.73;3.87;;;11.90;99.90;;;;;;4978391;28;20230;-85
2023/11/20 03:47:06;;;;;;;14.40;3.83;;;11.90;99.90;;;;;;4978930;28;20563;-84
2023/11/20 03:49:32;;;;;;;14.57;3.33;;;11.90;99.90;;;;;;4978517;28;20757;-86
2023/11/20 03:51:58;;;;;;;15.17;3.63;;;11.90;99.90;;;;;;4996465;28;20250;-87
2023/11/20 03:54:24;;;;;;;14.17;3.07;;;11.80;99.90;;;;;;4978433;28;20230;-85
2023/11/20 03:56:50;;;;;;;17.37;3.57;;;11.70;99.90;;;;;;4981609;28;20501;-84
2023/11/20 03:59:16;;;;;;;13.23;3.50;;;11.80;99.90;;;;;;4995820;28;20205;-84
2023/11/20 04:01:41;;;;;;;15.53;3.57;;;11.90;99.90;;;;;;4986545;28;20180;-86
2023/11/20 04:04:08;;;;;;;14.77;3.97;;;11.70;99.90;;;;;;4979222;28;20667;-88
2023/11/20 04:06:34;;;;;;;19.27;4.23;;;11.70;99.90;;;;;;4979226;28;20186;-84
2023/11/20 04:08:59;;;;;;;15.77;3.70;;;11.80;99.90;;;;;;4978477;28;20186;-85
2023/11/20 04:11:25;;;;;;;12.40;3.40;;;11.80;99.90;;;;;;4978794;28;20268;-85
2023/11/20 04:13:51;;;;;;;19.40;4.33;;;11.70;99.90;;;;;;4977831;28;20238;-92
2023/11/20 04:16:17;;;;;;;16.77;3.43;;;11.60;99.90;;;;;;4981053;28;20238;-89
2023/11/20 04:18:45;;;;;;;16.30;3.50;;;11.50;99.90;;;;;;4981014;28;20298;-88
2023/11/20 04:21:11;;;;;;;19.57;4.10;;;11.50;99.90;;;;;;4985649;28;20207;-90
2023/11/20 04:23:38;;;;;;;17.20;3.63;;;11.60;99.90;;;;;;4988367;28;20214;-91
2023/11/20 04:26:03;;;;;;;17.20;3.73;;;11.60;99.90;;;;;;4980756;28;20211;-94
2023/11/20 04:28:35;;;;;;;13.10;3.13;;;11.50;99.90;;;;;;4979651;28;20210;-92
2023/11/20 04:31:01;;;;;;;18.50;4.13;;;11.40;99.90;;;;;;4996332;28;20258;-91
2023/11/20 04:33:27;;;;;;;14.30;2.87;;;11.40;99.90;;;;;;4979469;28;20179;-91
2023/11/20 04:35:53;;;;;;;17.23;3.70;;;11.50;99.90;;;;;;4978790;28;20198;-91
2023/11/20 04:38:18;;;;;;;11.67;3.50;;;11.30;99.90;;;;;;4980296;28;20226;-89
2023/11/20 04:40:48;;;;;;;19.23;3.87;;;11.40;99.90;;;;;;4979945;28;20205;-90
2023/11/20 04:43:15;;;;;;;16.30;3.40;;;11.30;99.90;;;;;;4980803;28;20233;-90
2023/11/20 04:45:40;;;;;;;15.30;3.60;;;11.30;99.90;;;;;;4976786;28;20182;-85
2023/11/20 04:48:08;;;;;;;13.67;3.10;;;11.30;99.90;;;;;;4978576;28;20241;-86
2023/11/20 04:50:35;;;;;;;12.27;3.33;;;11.20;99.90;;;;;;4977118;28;20195;-86
2023/11/20 04:53:01;;;;;;;13.37;2.77;;;11.20;99.90;;;;;;4977585;28;20526;-86
2023/11/20 04:55:28;;;;;;;12.83;3.20;;;11.20;99.90;;;;;;4977972;28;20241;-85
2023/11/20 04:57:53;;;;;;;14.20;3.50;;;11.10;99.90;;;;;;4976141;28;20219;-84
2023/11/20 05:00:19;;;;;;;16.20;2.93;;;11.10;99.90;;;;;;4977419;28;20211;-87
2023/11/20 05:02:45;;;;;;;14.07;3.47;;;11.10;99.90;;;;;;4995153;28;20180;-84
2023/11/20 05:05:11;;;;;;;12.70;3.13;;;11.20;99.90;;;;;;4976669;28;20195;-85
2023/11/20 05:07:36;;;;;;;17.43;3.37;;;11.40;99.90;;;;;;4977208;28;20193;-85
2023/11/20 05:10:03;;;;;;;11.67;2.70;;;11.20;99.90;;;;;;4989906;28;20175;-84
2023/11/20 05:12:28;;;;;;;13.63;3.23;;;11.20;99.90;;;;;;4994500;28;20214;-86
2023/11/20 05:14:54;;;;;;;15.03;3.40;;;11.30;99.90;;;;;;4999473;28;20652;-84
2023/11/20 05:17:20;;;;;;;12.57;3.00;;;11.20;99.90;;;;;;4979422;28;20206;-87
2023/11/20 05:19:46;;;;;;;12.17;3.13;;;11.20;99.90;;;;;;4977702;28;20612;-85
2023/11/20 05:22:13;;;;;;;15.90;3.37;;;11.20;99.90;;;;;;5004952;28;20183;-85
2023/11/20 05:24:41;;;;;;;12.53;3.50;;;11.30;99.90;;;;;;4979371;28;20261;-85
2023/11/20 05:27:09;;;;;;;14.20;4.20;;;11.30;99.90;;;;;;4977306;28;20190;-83
2023/11/20 05:29:37;;;;;;;15.53;3.37;;;11.40;99.90;;;;;;4976586;28;20183;-86
2023/11/20 05:32:04;;;;;;;14.20;3.43;;;11.40;99.90;;;;;;4976557;28;20179;-84
2023/11/20 05:34:30;;;;;;;12.57;4.13;;;11.30;99.90;;;;;;4976029;28;20199;-85
2023/11/20 05:36:56;;;;;;;15.17;3.43;;;11.20;99.90;;;;;;4976888;28;20615;-84
2023/11/20 05:39:22;;;;;;;19.63;4.13;;;11.10;99.90;;;;;;4976970;28;20194;-85
2023/11/20 05:41:48;;;;;;;17.10;3.70;;;11.20;99.90;;;;;;4976708;28;20189;-85
2023/11/20 05:44:14;;;;;;;18.13;4.13;;;11.10;99.90;;;;;;4977583;28;20215;-87
2023/11/20 05:46:39;;;;;;;13.73;3.50;;;11.20;99.90;;;;;;4977183;28;20652;-86
2023/11/20 05:49:05;;;;;;;15.67;3.80;;;11.20;99.90;;;;;;4975906;28;20186;-86
2023/11/20 05:51:31;;;;;;;18.63;4.13;;;11.20;99.90;;;;;;4977410;28;20189;-86
2023/11/20 05:53:57;;;;;;;18.57;4.07;;;11.30;99.90;;;;;;4977423;28;20191;-87
2023/11/20 05:56:23;;;;;;;15.03;3.90;;;11.20;99.90;;;;;;4977351;28;20286;-84
2023/11/20 05:58:49;;;;;;;14.17;3.30;;;11.20;99.90;;;;;;4987813;28;20242;-85
2023/11/20 06:01:15;;;;;;;14.00;3.40;;;11.30;99.90;;;;;;4986515;28;20183;-85
2023/11/20 06:03:41;;;;;;;12.90;3.00;;;11.30;99.90;;;;;;4980819;28;20651;-86
2023/11/20 06:06:06;;;;;;;15.93;3.13;;;11.20;99.90;;;;;;4981297;28;20237;-86
2023/11/20 06:08:33;;;;;;;14.87;3.80;;;11.20;99.90;;;;;;4999298;28;20256;-86
2023/11/20 06:10:59;;;;;;;11.20;3.17;;;11.20;99.90;;;;;;4981977;28;20182;-86
2023/11/20 06:13:25;;;;;;;13.07;3.47;;;11.30;99.90;;;;;;4981338;28;20183;-86
2023/11/20 06:15:50;;;;;;;14.33;3.50;;;11.30;99.90;;;;;;4982793;28;20187;-86
2023/11/20 06:18:17;;;;;;;13.73;3.13;;;11.30;99.90;;;;;;4983927;28;20235;-87
2023/11/20 06:20:43;;;;;;;13.50;2.93;;;11.20;99.90;;;;;;4981818;28;20679;-85
2023/11/20 06:23:09;;;;;;;11.50;2.77;;;11.20;99.90;;;;;;4983258;28;20237;-86
2023/11/20 06:25:36;;;;;;;11.20;2.83;;;11.20;99.90;;;;;;4988777;28;20208;-86
2023/11/20 06:28:01;;;;;;;10.87;2.70;;;11.20;99.90;;;;;;4991928;28;20218;-87
2023/11/20 06:30:27;;;;;;;13.87;3.30;;;11.30;99.90;;;;;;4988751;28;20165;-91
2023/11/20 06:32:52;;;;;;;15.13;3.50;;;11.40;99.90;;;;;;4985409;28;20285;-90
2023/11/20 06:35:18;;;;;;;13.07;2.60;;;11.50;99.90;;;;;;4987937;28;20173;-86
2023/11/20 06:37:45;;;;;;;16.70;3.30;;;11.40;99.90;;;;;;4981845;28;20220;-86
2023/11/20 06:40:11;;;;;;;11.90;2.90;;;11.30;99.90;;;;;;4996670;28;20192;-91
2023/11/20 06:42:37;;;;;;;15.83;2.97;;;11.40;99.90;;;;;;4989525;28;20198;-88
2023/11/20 06:45:05;;;;;;;15.53;3.27;;;11.40;99.90;;;;;;4998445;28;20180;-88
2023/11/20 06:47:30;;;;;;;14.67;3.47;;;11.30;99.90;;;;;;5016927;28;20212;-86
2023/11/20 06:49:59;;;;;;;12.40;3.33;;;11.50;99.90;;;;;;5004494;28;20580;-87
2023/11/20 06:52:25;;;;;;;12.77;3.00;;;11.50;99.90;;;;;;4999245;28;20631;-87
2023/11/20 06:54:51;;;;;;;12.27;2.80;;;11.40;99.90;;;;;;4980041;28;20202;-84
2023/11/20 06:57:16;;;;;;;10.87;3.30;;;11.40;99.90;;;;;;4979995;28;20297;-87
2023/11/20 06:59:44;;;;;;;10.60;2.97;;;11.40;99.90;;;;;;4980274;28;20180;-84
2023/11/20 07:02:10;;;;;;;10.97;2.83;;;11.40;99.90;;;;;;4997442;28;20183;-87
2023/11/20 07:04:38;;;;;;;11.00;2.97;;;11.50;99.90;;;;;;4980761;28;20272;-85
2023/11/20 07:07:04;;;;;;;9.97;3.30;;;11.50;99.90;;;;;;4980827;28;20192;-87
2023/11/20 07:09:30;;;;;;;12.00;3.47;;;11.50;99.90;;;;;;4983771;28;20184;-90
2023/11/20 07:11:57;;;;;;;12.13;3.37;;;11.40;99.90;;;;;;4996380;28;20183;-86
2023/11/20 07:14:23;;;;;;;15.20;3.93;;;11.40;99.90;;;;;;4995332;28;20207;-87
2023/11/20 07:16:48;;;;;;;12.63;3.30;;;11.40;99.90;;;;;;4996778;28;20189;-86
2023/11/20 07:19:14;;;;;;;11.73;3.20;;;11.50;99.90;;;;;;4987209;28;20230;-86
2023/11/20 07:21:43;;;;;;;9.53;2.60;;;11.50;99.90;;;;;;5004131;28;20317;-86
2023/11/20 07:24:10;;;;;;;9.70;3.07;;;11.40;99.90;;;;;;5000532;28;20183;-86
2023/11/20 07:26:35;;;;;;;14.57;2.87;;;11.40;99.90;;;;;;5016766;28;20653;-86
2023/11/20 07:29:01;;;;;;;11.50;3.40;;;11.40;99.90;;;;;;5000732;28;20179;-86
2023/11/20 07:31:28;;;;;;;9.53;2.90;;;11.30;99.90;;;;;;4998968;28;20187;-85
2023/11/20 07:33:54;;;;;;;9.33;2.50;;;11.30;99.90;;;;;;5004625;28;20277;-87
2023/11/20 07:36:20;;;;;;;8.43;2.70;;;11.30;99.90;;;;;;4998250;28;20227;-84
2023/11/20 07:38:47;;;;;;;11.23;3.10;;;11.50;99.90;;;;;;4975322;28;20229;-86
2023/11/20 07:41:13;;;;;;;13.40;2.97;;;11.40;99.90;;;;;;4987391;28;20192;-86
2023/11/20 07:43:39;;;;;;;13.10;3.67;;;11.40;99.90;;;;;;4997552;28;20202;-87
2023/11/20 07:46:07;;;;;;;13.43;3.20;;;11.40;99.90;;;;;;5010751;28;20668;-86
2023/11/20 07:48:33;;;;;;;10.73;3.00;;;11.30;99.90;;;;;;4988013;28;20187;-86
2023/11/20 07:51:02;;;;;;;8.33;2.40;;;11.30;99.90;;;;;;4996063;28;20615;-87
2023/11/20 07:53:28;;;;;;;10.67;2.97;;;11.30;99.90;;;;;;5001192;28;20203;-86
2023/11/20 07:55:54;;;;;;;9.43;3.00;;;11.40;99.90;;;;;;4992132;28;20202;-86
2023/11/20 07:58:20;;;;;;;9.23;2.57;;;11.40;99.90;;;;;;4998441;28;20234;-88
2023/11/20 08:00:45;;;;;;;7.80;2.57;;;11.30;99.90;;;;;;5028950;28;20186;-89
2023/11/20 08:03:12;;;;;;;11.60;2.63;;;11.40;99.90;;;;;;5002771;28;20218;-88
2023/11/20 08:05:46;;;;;;;10.83;2.57;;;11.30;99.90;;;;;;4976628;28;20199;-91
2023/11/20 08:08:12;;;;;;;8.13;2.30;;;11.50;99.90;;;;;;4995036;28;20192;-90
2023/11/20 08:10:38;;;;;;;8.33;2.57;;;11.60;99.90;;;;;;4984718;28;20282;-89
2023/11/20 08:13:04;;;;;;;8.80;3.13;;;11.50;99.90;;;;;;5008365;28;20197;-86
2023/11/20 08:15:31;;;;;;;9.67;3.00;;;11.40;99.90;;;;;;4990522;28;20183;-89
2023/11/20 08:17:56;;;;;;;11.20;3.40;;;11.40;99.90;;;;;;4989961;28;20210;-87
2023/11/20 08:20:23;;;;;;;9.57;2.97;;;11.40;99.90;;;;;;4989454;28;20280;-87
2023/11/20 08:22:48;;;;;;;8.27;2.77;;;11.40;99.90;;;;;;4988395;28;20195;-89
2023/11/20 08:25:14;;;;;;;8.17;3.37;;;11.50;99.90;;;;;;5009929;28;20215;-88
2023/11/20 08:27:41;;;;;;;8.07;3.23;;;11.50;99.90;;;;;;4989443;28;20222;-87
2023/11/20 08:30:10;;;;;;;7.77;2.90;;;11.50;99.90;;;;;;4993980;28;20277;-86
2023/11/20 08:32:36;;;;;;;7.33;3.00;;;11.50;99.90;;;;;;4982554;28;20188;-87
2023/11/20 08:35:01;;;;;;;8.93;2.63;;;11.60;99.90;;;;;;4989289;28;20242;-90
2023/11/20 08:37:27;;;;;;;8.50;2.80;;;11.50;99.90;;;;;;4990242;28;20653;-86
2023/11/20 08:39:53;;;;;;;8.37;3.10;;;11.60;99.90;;;;;;4989679;28;20220;-86
2023/11/20 08:42:20;;;;;;;10.10;2.70;;;11.80;99.90;;;;;;4988145;28;20191;-88
2023/11/20 08:44:46;;;;;;;11.87;2.60;;;11.70;99.90;;;;;;4993877;28;20237;-85
2023/11/20 08:47:13;;;;;;;11.53;2.73;;;11.70;99.90;;;;;;5007371;28;20319;-90
2023/11/20 08:49:39;;;;;;;10.20;2.87;;;11.80;99.90;;;;;;5004435;28;20195;-86
2023/11/20 08:52:05;;;;;;;8.37;2.80;;;11.70;99.90;;;;;;4985411;28;20646;-88
2023/11/20 08:54:31;;;;;;;8.53;2.40;;;11.70;99.90;;;;;;4996043;28;20186;-88
2023/11/20 08:57:11;;;;;;;7.93;2.40;;;11.60;99.90;;;;;;5061946;28;20537;-89
2023/11/20 08:59:38;;;;;;;6.30;2.20;;;11.80;99.90;;;;;;5059546;28;20216;-89
2023/11/20 09:02:04;;;;;;;6.23;2.50;;;11.70;99.90;;;;;;5063746;28;20283;-87
2023/11/20 09:04:29;;;;;;;11.37;3.00;;;11.60;99.90;;;;;;5073279;28;20469;-86
2023/11/20 09:06:55;;;;;;;10.60;2.57;;;11.60;99.90;;;;;;5068119;28;20187;-87
2023/11/20 09:09:21;;;;;;;7.23;2.60;;;11.50;99.90;;;;;;5060901;28;20614;-87
2023/11/20 09:11:47;;;;;;;8.40;2.50;;;11.60;99.90;;;;;;5059979;28;20514;-88
2023/11/20 09:14:12;;;;;;;8.80;2.80;;;11.60;99.90;;;;;;5049543;28;20220;-86
2023/11/20 09:16:38;;;;;;;6.77;2.53;;;11.60;99.90;;;;;;5055900;28;20259;-88
2023/11/20 09:19:04;;;;;;;8.23;3.30;;;11.70;99.90;;;;;;5060026;28;20859;-87
2023/11/20 09:21:29;;;;;;;9.63;2.83;;;11.70;99.90;;;;;;5061965;28;20192;-86
2023/11/20 09:23:55;;;;;;;9.00;2.90;;;11.60;99.90;;;;;;5056069;28;20173;-85
2023/11/20 09:26:21;;;;;;;8.07;3.10;;;11.60;99.90;;;;;;5059000;28;20184;-87
2023/11/20 09:28:47;;;;;;;10.80;3.07;;;11.70;99.90;;;;;;5059839;28;20269;-87
2023/11/20 09:31:19;;;;;;;8.27;3.53;;;11.60;99.90;;;;;;5057609;28;20183;-87
2023/11/20 09:33:46;;;;;;;8.60;3.10;;;11.60;99.90;;;;;;5059111;28;20196;-86
2023/11/20 09:36:12;;;;;;;7.40;2.70;;;11.70;99.90;;;;;;5054671;28;20214;-86
2023/11/20 09:38:38;;;;;;;11.47;3.00;;;11.80;99.90;;;;;;5059149;28;20231;-85
2023/11/20 09:41:04;;;;;;;11.67;2.90;;;11.80;99.90;;;;;;5059706;28;20183;-84
2023/11/20 09:43:34;;;;;;;8.17;2.70;;;11.80;99.90;;;;;;5058126;28;20200;-86
2023/11/20 09:46:03;;;;;;;9.40;2.90;;;12.10;99.90;;;;;;5086168;28;20214;-87
2023/11/20 09:48:33;;;;;;;10.87;2.70;;;12.20;99.90;;;;;;5054476;28;20201;-86
2023/11/20 09:51:00;;;;;;;9.93;3.27;;;12.00;99.90;;;;;;5055532;28;20189;-86
2023/11/20 09:53:35;;;;;;;10.20;3.00;;;11.90;99.90;;;;;;5062171;28;20200;-86
2023/11/20 09:56:03;;;;;;;8.07;2.37;;;12.20;99.90;;;;;;5059129;28;20214;-85
2023/11/20 09:58:40;;;;;;;13.63;2.30;;;12.00;99.90;;;;;;5073851;28;20172;-84
2023/11/20 10:01:09;;;;;;;11.23;3.07;;;12.00;99.90;;;;;;5075902;28;20181;-87
2023/11/20 10:03:39;;;;;;;11.83;3.03;;;12.00;99.90;;;;;;5069605;28;20178;-87
2023/11/20 10:06:27;;;;;;;7.83;2.40;;;12.00;99.90;;;;;;5062554;28;20226;-86
2023/11/20 10:08:54;;;;;;;8.77;2.60;;;11.90;99.90;;;;;;5046672;28;20192;-84
2023/11/20 10:11:22;;;;;;;9.90;2.57;;;11.90;99.90;;;;;;5037268;28;20492;-86
2023/11/20 10:13:48;;;;;;;6.53;2.13;;;12.00;99.90;;;;;;5042630;28;20192;-85
2023/11/20 10:16:17;;;;;;;6.97;2.43;;;12.00;99.90;;;;;;5040735;28;20204;-88
2023/11/20 10:18:43;;;;;;;6.43;2.50;;;12.10;99.90;;;;;;5043102;28;20184;-88
2023/11/20 10:21:12;;;;;;;6.27;2.80;;;12.20;99.90;;;;;;5045879;28;20233;-87
2023/11/20 10:23:39;;;;;;;8.17;2.40;;;12.20;99.90;;;;;;5046333;28;20170;-87
2023/11/20 10:26:07;;;;;;;7.90;2.70;;;12.20;99.90;;;;;;5051021;28;20286;-87
2023/11/20 10:28:38;;;;;;;8.43;2.50;;;12.20;99.90;;;;;;5051374;28;20171;-86
2023/11/20 10:31:04;;;;;;;10.17;3.20;;;12.00;99.90;;;;;;5045866;28;20177;-86
2023/11/20 10:33:36;;;;;;;10.47;3.30;;;12.00;99.90;;;;;;5040580;28;20176;-88
2023/11/20 10:36:16;;;;;;;10.83;3.07;;;12.00;99.90;;;;;;5046766;28;20207;-85
2023/11/20 10:38:43;;;;;;;10.30;3.43;;;12.10;99.90;;;;;;5046525;28;20598;-91
2023/11/20 10:41:09;;;;;;;14.00;3.73;;;12.00;99.90;;;;;;5045390;28;20259;-89
2023/11/20 10:43:39;;;;;;;10.67;3.53;;;11.90;99.90;;;;;;5044100;28;20180;-88
2023/11/20 10:46:06;;;;;;;8.87;3.20;;;11.90;99.90;;;;;;5039726;28;20251;-86
2023/11/20 10:48:36;;;;;;;9.43;3.30;;;11.90;99.90;;;;;;5055917;28;20169;-87
2023/11/20 10:51:07;;;;;;;8.53;3.20;;;11.80;99.90;;;;;;5057063;28;20213;-85
2023/11/20 10:53:40;;;;;;;11.57;3.50;;;11.80;99.90;;;;;;5061414;28;20168;-89
2023/11/20 10:56:11;;;;;;;14.13;3.20;;;11.70;99.90;;;;;;5062054;28;20230;-90
2023/11/20 10:58:40;;;;;;;10.47;3.40;;;11.80;99.90;;;;;;5063997;28;20246;-88
2023/11/20 11:01:07;;;;;;;10.30;3.40;;;11.80;99.90;;;;;;5062899;28;20173;-91
2023/11/20 11:03:37;;;;;;;9.07;3.43;;;11.80;99.90;;;;;;5063171;28;20193;-87
2023/11/20 11:06:10;;;;;;;10.03;3.20;;;11.80;99.90;;;;;;5068914;28;20209;-89
2023/11/20 11:08:37;;;;;;;9.37;3.13;;;11.80;99.90;;;;;;5062621;28;20192;-87
2023/11/20 11:11:04;;;;;;;9.63;2.93;;;11.90;99.90;;;;;;5062295;28;20240;-87
2023/11/20 11:13:33;;;;;;;13.40;3.33;;;11.90;99.90;;;;;;5058235;28;20242;-95
2023/11/20 11:16:02;;;;;;;10.83;3.10;;;11.90;99.90;;;;;;5057555;28;20208;-90
2023/11/20 11:18:33;;;;;;;13.50;3.43;;;11.90;99.90;;;;;;5055685;28;20175;-90
2023/11/20 11:20:59;;;;;;;11.57;3.70;;;11.90;99.90;;;;;;5056000;28;20661;-90
2023/11/20 11:23:49;;;;;;;15.23;3.97;;;12.00;99.90;;;;;;5057282;28;20201;-90
2023/11/20 11:26:26;;;;;;;11.93;3.53;;;11.80;99.90;;;;;;5057815;28;20237;-89
2023/11/20 11:28:59;;;;;;;9.20;3.10;;;11.90;99.90;;;;;;5057608;28;20171;-88
2023/11/20 11:31:38;;;;;;;13.70;3.40;;;12.00;99.90;;;;;;5055775;28;20180;-88
2023/11/20 11:34:11;;;;;;;7.83;2.90;;;11.90;99.90;;;;;;5057764;28;20194;-89
2023/11/20 11:36:43;;;;;;;11.67;3.13;;;11.90;99.90;;;;;;5057900;28;20219;-88
2023/11/20 11:39:18;;;;;;;11.10;3.10;;;11.90;99.90;;;;;;5062327;28;20165;-93
2023/11/20 11:41:48;;;;;;;11.67;3.20;;;11.90;99.90;;;;;;5065307;28;20193;-90
2023/11/20 11:44:34;;;;;;;9.47;2.80;;;11.90;99.90;;;;;;5060217;28;20175;-89
2023/11/20 11:47:03;;;;;;;14.33;3.30;;;11.90;99.90;;;;;;5056483;28;20222;-88
2023/11/20 11:49:29;;;;;;;12.43;3.03;;;11.90;99.90;;;;;;5056698;28;20175;-91
2023/11/20 11:52:04;;;;;;;9.57;2.90;;;11.90;99.90;;;;;;5056391;28;20175;-88
2023/11/20 11:54:30;;;;;;;10.13;2.80;;;11.90;99.90;;;;;;5061629;28;20259;-87
2023/11/20 11:57:00;;;;;;;9.67;2.97;;;11.90;99.90;;;;;;5060386;28;20275;-88
2023/11/20 11:59:35;;;;;;;8.83;3.23;;;11.90;99.90;;;;;;5076921;28;20179;-86
2023/11/20 12:02:02;;;;;;;12.17;3.37;;;12.00;99.90;;;;;;5070475;28;20181;-89
2023/11/20 12:04:55;;;;;;;10.27;3.03;;;12.00;99.90;;;;;;5058974;28;20167;-93
2023/11/20 12:07:36;;;;;;;10.97;3.53;;;11.90;99.90;;;;;;5056724;28;20244;-94
2023/11/20 12:10:13;;;;;;;11.27;3.60;;;12.10;99.90;;;;;;5057074;28;20176;-90
2023/11/20 12:12:48;;;;;;;14.13;3.33;;;12.00;99.90;;;;;;5056334;28;20177;-90
2023/11/20 12:15:37;;;;;;;10.27;3.07;;;11.90;99.90;;;;;;5055638;28;20354;-91
2023/11/20 12:18:08;;;;;;;10.30;3.37;;;11.90;99.90;;;;;;5057237;28;20239;-90
2023/11/20 12:20:54;;;;;;;9.50;3.07;;;12.00;99.90;;;;;;5056604;28;20250;-91
2023/11/20 12:23:23;;;;;;;9.73;3.03;;;12.10;99.90;;;;;;5049431;28;20228;-93
2023/11/20 12:25:49;;;;;;;12.20;3.27;;;12.00;99.90;;;;;;5062041;28;20173;-88
2023/11/20 12:28:15;;;;;;;9.10;2.90;;;11.90;99.90;;;;;;5072952;28;20161;-87
2023/11/20 12:30:44;;;;;;;11.97;3.03;;;11.90;99.90;;;;;;5063171;28;20214;-91
2023/11/20 12:33:09;;;;;;;10.57;3.03;;;12.00;99.90;;;;;;5065716;28;20206;-86
2023/11/20 12:35:36;;;;;;;10.00;2.63;;;11.90;99.90;;;;;;5067069;28;20193;-90
2023/11/20 12:38:07;;;;;;;10.07;3.50;;;11.90;99.90;;;;;;5057672;28;20665;-86
2023/11/20 12:40:33;;;;;;;10.93;2.90;;;12.00;99.90;;;;;;5056401;28;20168;-88